Time;durP1;ratioP1;P1;durP2;ratioP2;P2;SDS_P1;SDS_P2;PMS_P1;PMS_P2;Temp;Humidity;BMP_temperature;BMP_pressure;BME280_temperature;BME280_humidity;BME280_pressure;Samples;Min_cycle;Max_cycle;Signal;HPM_P1;HPM_P2
2023/05/09 08:06:25;;;;;;;11.13;9.65;;;;;;;14.60;100.00;101135.38;5107763;27;20419;-75
2023/05/09 08:12:35;;;;;;;9.75;8.07;;;;;;;14.65;100.00;101129.22;5107117;28;20023;-82
2023/05/09 08:15:00;;;;;;;10.85;8.10;;;;;;;14.63;100.00;101121.28;5096676;28;20375;-74
2023/05/09 08:17:25;;;;;;;10.50;7.72;;;;;;;14.70;100.00;101119.25;5073983;28;20028;-74
2023/05/09 08:19:51;;;;;;;9.55;7.72;;;;;;;14.75;100.00;101120.38;5051903;28;20063;-75
2023/05/09 08:22:18;;;;;;;8.85;7.60;;;;;;;14.77;100.00;101118.25;5069862;28;20096;-76
2023/05/09 08:24:44;;;;;;;10.25;7.18;;;;;;;14.74;100.00;101110.59;5074613;28;20082;-75
2023/05/09 08:27:12;;;;;;;8.27;6.80;;;;;;;14.75;100.00;101113.06;5068359;28;20024;-75
2023/05/09 08:29:37;;;;;;;14.95;7.38;;;;;;;14.75;100.00;101104.88;5089798;28;20025;-76
2023/05/09 08:32:03;;;;;;;8.45;6.50;;;;;;;14.79;100.00;101097.84;5089525;28;20030;-74
2023/05/09 08:34:30;;;;;;;9.10;7.25;;;;;;;14.83;100.00;101092.75;5089728;28;20477;-74
2023/05/09 08:36:55;;;;;;;10.10;6.97;;;;;;;14.82;100.00;101099.25;5069106;28;20029;-73
2023/05/09 08:39:21;;;;;;;9.88;7.03;;;;;;;14.84;100.00;101097.97;5069359;28;20039;-74
2023/05/09 08:41:47;;;;;;;7.45;6.63;;;;;;;14.84;100.00;101097.09;5069354;28;20033;-76
2023/05/09 08:44:12;;;;;;;7.57;6.88;;;;;;;14.83;100.00;101100.94;5069053;28;20029;-74
2023/05/09 08:46:41;;;;;;;8.63;7.53;;;;;;;14.82;100.00;101088.38;5069448;28;20029;-75
2023/05/09 08:49:07;;;;;;;8.45;7.38;;;;;;;14.82;100.00;101086.47;5068976;28;20060;-73
2023/05/09 08:51:34;;;;;;;7.28;6.47;;;;;;;14.85;100.00;101094.13;5067764;28;20059;-76
2023/05/09 08:53:59;;;;;;;8.13;7.20;;;;;;;14.87;100.00;101091.16;5089076;28;20036;-74
2023/05/09 08:56:25;;;;;;;10.15;7.00;;;;;;;14.89;100.00;101084.41;5070812;28;20416;-75
2023/05/09 08:58:51;;;;;;;9.20;7.07;;;;;;;14.94;100.00;101085.56;5089087;28;20024;-73
2023/05/09 09:01:17;;;;;;;10.35;7.10;;;;;;;14.92;100.00;101080.38;5086335;28;20027;-76
2023/05/09 09:03:46;;;;;;;7.40;6.65;;;;;;;14.93;100.00;101071.13;5065834;28;20021;-73
2023/05/09 09:06:12;;;;;;;8.45;6.30;;;;;;;14.89;100.00;101080.88;5070865;28;20033;-73
2023/05/09 09:08:38;;;;;;;6.63;5.95;;;;;;;14.91;100.00;101081.44;5056388;28;20046;-73
2023/05/09 09:11:04;;;;;;;6.88;6.10;;;;;;;14.87;100.00;101074.81;5081421;28;20107;-75
2023/05/09 09:13:31;;;;;;;7.38;5.90;;;;;;;14.87;100.00;101085.72;5088646;28;20150;-76
2023/05/09 09:15:58;;;;;;;7.15;5.93;;;;;;;14.86;100.00;101084.09;5083932;28;20471;-73
2023/05/09 09:18:28;;;;;;;7.78;5.65;;;;;;;14.83;100.00;101079.13;5057403;28;20031;-74
2023/05/09 09:21:05;;;;;;;6.40;5.40;;;;;;;14.84;100.00;101075.31;5075074;28;20035;-73
2023/05/09 09:23:32;;;;;;;9.32;6.10;;;;;;;14.83;100.00;101070.97;5053485;28;20155;-75
2023/05/09 09:26:00;;;;;;;8.70;5.65;;;;;;;14.80;100.00;101068.72;5036712;28;20024;-75
2023/05/09 09:28:26;;;;;;;6.80;5.25;;;;;;;14.83;100.00;101062.78;5055220;28;20032;-75
2023/05/09 09:30:51;;;;;;;7.82;5.40;;;;;;;14.83;100.00;101062.78;5055188;28;20028;-75
2023/05/09 09:33:21;;;;;;;7.68;5.38;;;;;;;14.81;100.00;101064.91;5040166;28;20203;-74
2023/05/09 09:35:51;;;;;;;6.32;5.18;;;;;;;14.80;100.00;101060.56;5035190;28;20021;-75
2023/05/09 09:38:18;;;;;;;5.60;4.57;;;;;;;14.78;100.00;101047.19;5017084;28;20029;-74
2023/05/09 09:40:57;;;;;;;6.95;4.57;;;;;;;14.90;100.00;101055.28;5033892;28;20526;-76
2023/05/09 09:43:31;;;;;;;6.28;4.88;;;;;;;14.89;100.00;101042.72;5036294;28;20025;-73
2023/05/09 09:46:04;;;;;;;7.53;4.75;;;;;;;14.93;100.00;101043.88;5044969;28;20025;-74
2023/05/09 09:48:32;;;;;;;7.07;4.88;;;;;;;14.93;100.00;101046.59;5047368;28;20052;-75
2023/05/09 09:51:03;;;;;;;5.93;5.18;;;;;;;15.00;100.00;101044.50;5075062;28;20029;-74
2023/05/09 09:53:29;;;;;;;8.40;4.63;;;;;;;14.99;100.00;101044.75;5044937;28;20033;-75
2023/05/09 09:55:58;;;;;;;7.50;4.88;;;;;;;15.01;100.00;101042.63;5054174;28;20029;-75
2023/05/09 09:58:26;;;;;;;5.45;4.90;;;;;;;14.98;100.00;101033.03;5052773;28;20090;-75
2023/05/09 10:01:07;;;;;;;5.25;4.72;;;;;;;15.01;100.00;101039.91;5068010;28;20032;-76
2023/05/09 10:03:43;;;;;;;7.43;5.35;;;;;;;14.99;100.00;101029.25;5074654;28;20028;-75
2023/05/09 10:06:16;;;;;;;6.80;5.07;;;;;;;15.03;100.00;101030.38;5040229;28;20453;-76
2023/05/09 10:08:52;;;;;;;7.30;5.57;;;;;;;15.00;100.00;101025.44;5045337;28;20381;-78
2023/05/09 10:11:20;;;;;;;6.47;5.28;;;;;;;15.07;100.00;101028.00;5034137;28;20435;-79
2023/05/09 10:13:48;;;;;;;6.57;5.20;;;;;;;15.10;100.00;101024.75;5041766;28;20030;-77
2023/05/09 10:16:13;;;;;;;8.55;5.05;;;;;;;15.12;100.00;101019.88;5014118;28;20068;-77
2023/05/09 10:18:41;;;;;;;6.30;5.22;;;;;;;15.08;100.00;101021.44;5013087;28;20032;-77
2023/05/09 10:21:08;;;;;;;5.15;4.65;;;;;;;15.05;100.00;101022.78;5014587;28;20036;-76
2023/05/09 10:23:44;;;;;;;6.65;5.38;;;;;;;15.04;100.00;101020.31;5014814;28;20034;-79
2023/05/09 10:26:31;;;;;;;7.28;5.45;;;;;;;15.07;100.00;101017.91;5014342;28;20453;-75
2023/05/09 10:29:00;;;;;;;6.07;5.43;;;;;;;15.05;100.00;101017.34;5027934;28;20060;-75
2023/05/09 10:31:27;;;;;;;7.68;5.50;;;;;;;14.97;100.00;101014.22;5033096;28;20029;-71
2023/05/09 10:33:54;;;;;;;5.57;4.88;;;;;;;14.96;100.00;101007.94;5034099;28;20521;-72
2023/05/09 10:36:21;;;;;;;7.70;5.20;;;;;;;15.03;100.00;101008.56;5033780;28;20025;-73
2023/05/09 10:38:55;;;;;;;6.25;5.65;;;;;;;15.00;100.00;101003.63;5033346;28;20025;-75
2023/05/09 10:41:21;;;;;;;6.32;5.53;;;;;;;14.99;100.00;101002.00;5033220;28;20365;-76
2023/05/09 10:43:47;;;;;;;6.50;5.53;;;;;;;14.98;100.00;100994.88;5040668;28;20460;-75
2023/05/09 10:46:13;;;;;;;5.60;5.07;;;;;;;15.04;100.00;100996.59;5034816;28;20025;-76
2023/05/09 10:48:41;;;;;;;6.90;5.50;;;;;;;14.99;100.00;100990.25;5047426;28;20032;-76
2023/05/09 10:51:07;;;;;;;6.97;5.53;;;;;;;15.04;100.00;100999.34;5032423;28;20025;-75
2023/05/09 10:53:47;;;;;;;7.75;5.38;;;;;;;15.02;100.00;100987.88;5032157;28;20453;-75
2023/05/09 10:56:28;;;;;;;5.95;5.30;;;;;;;14.99;100.00;100991.09;5048678;28;20116;-74
2023/05/09 10:58:54;;;;;;;5.95;5.15;;;;;;;14.93;100.00;100989.38;5033270;28;20025;-74
2023/05/09 11:01:35;;;;;;;7.15;5.35;;;;;;;15.00;100.00;100983.75;5030928;28;20091;-74
2023/05/09 11:04:11;;;;;;;5.97;5.28;;;;;;;14.92;100.00;100987.72;5052447;28;20021;-77
2023/05/09 11:06:49;;;;;;;6.65;5.25;;;;;;;14.85;100.00;100978.91;5073445;28;20103;-75
2023/05/09 11:09:36;;;;;;;6.18;5.57;;;;;;;14.83;100.00;100973.69;5073033;28;20179;-76
2023/05/09 11:12:05;;;;;;;6.47;5.75;;;;;;;14.77;100.00;100965.72;5073257;28;20465;-75
2023/05/09 11:14:36;;;;;;;6.68;5.30;;;;;;;14.77;100.00;100982.88;5073069;28;20020;-75
2023/05/09 11:17:03;;;;;;;6.65;5.55;;;;;;;14.76;100.00;100964.88;5066030;28;20476;-77
2023/05/09 11:19:45;;;;;;;6.97;5.55;;;;;;;14.75;100.00;100959.66;5059034;28;20045;-76
2023/05/09 11:22:14;;;;;;;8.38;6.05;;;;;;;14.76;100.00;100964.06;5052829;28;20024;-76
2023/05/09 11:24:48;;;;;;;6.15;5.22;;;;;;;14.73;100.00;100965.38;5035084;28;20088;-74
2023/05/09 11:27:25;;;;;;;8.98;5.05;;;;;;;14.74;100.00;100960.75;5051374;28;20540;-75
2023/05/09 11:29:56;;;;;;;5.18;4.53;;;;;;;14.70;100.00;100963.16;5052742;28;20364;-75
2023/05/09 11:32:27;;;;;;;4.97;4.25;;;;;;;14.64;100.00;100954.06;5033871;28;20025;-76
2023/05/09 11:35:14;;;;;;;7.07;4.60;;;;;;;14.64;100.00;100955.97;5060582;28;20108;-76
2023/05/09 11:38:00;;;;;;;5.18;4.20;;;;;;;14.66;100.00;100948.38;5035041;28;20052;-77
2023/05/09 11:40:27;;;;;;;5.97;4.55;;;;;;;14.58;100.00;100946.88;5048611;28;20032;-72
2023/05/09 11:42:55;;;;;;;4.63;4.18;;;;;;;14.49;100.00;100942.91;5051414;28;20391;-79
2023/05/09 11:45:23;;;;;;;4.68;4.28;;;;;;;14.43;100.00;100936.59;5021679;28;20040;-75
2023/05/09 11:47:50;;;;;;;5.68;4.18;;;;;;;14.44;100.00;100940.94;5056217;28;20028;-76
2023/05/09 11:50:18;;;;;;;5.18;4.03;;;;;;;14.43;100.00;100942.03;5051240;28;20081;-76
2023/05/09 11:52:44;;;;;;;4.80;4.07;;;;;;;14.46;100.00;100937.97;5052075;28;20062;-75
2023/05/09 11:55:12;;;;;;;5.32;4.43;;;;;;;14.45;100.00;100928.19;5051701;28;20032;-74
2023/05/09 11:57:43;;;;;;;7.40;4.20;;;;;;;14.47;100.00;100928.75;5049787;28;20025;-76
2023/05/09 12:00:09;;;;;;;5.15;3.85;;;;;;;14.49;100.00;100919.25;5052538;28;20031;-75
2023/05/09 12:02:35;;;;;;;5.97;3.47;;;;;;;14.50;100.00;100928.25;5031859;28;20023;-76
2023/05/09 12:05:12;;;;;;;3.85;3.38;;;;;;;14.56;100.00;100924.50;5047002;28;20140;-75
2023/05/09 12:07:38;;;;;;;6.00;3.20;;;;;;;14.55;100.00;100917.41;5043441;28;20492;-76
2023/05/09 12:10:08;;;;;;;6.93;3.40;;;;;;;14.57;100.00;100922.59;5052467;28;20063;-74
2023/05/09 12:12:35;;;;;;;6.05;3.45;;;;;;;14.53;100.00;100914.94;5049852;28;20029;-75
2023/05/09 12:15:03;;;;;;;3.83;3.40;;;;;;;14.56;100.00;100916.34;5052338;28;20029;-74
2023/05/09 12:17:29;;;;;;;4.25;3.60;;;;;;;14.58;100.00;100911.47;5033809;28;20111;-75
2023/05/09 12:19:54;;;;;;;3.85;3.30;;;;;;;14.54;100.00;100915.78;5034436;28;20132;-74
2023/05/09 12:22:20;;;;;;;4.05;3.40;;;;;;;14.57;100.00;100920.72;5051163;28;20468;-74
2023/05/09 12:24:45;;;;;;;4.53;4.05;;;;;;;14.56;100.00;100905.44;5050116;28;20017;-75
2023/05/09 12:27:11;;;;;;;5.35;4.72;;;;;;;14.57;100.00;100898.94;5051306;28;20537;-74
2023/05/09 12:29:39;;;;;;;6.50;4.80;;;;;;;14.59;100.00;100899.50;5072076;28;20023;-74
2023/05/09 12:32:05;;;;;;;7.97;4.95;;;;;;;14.52;100.00;100904.28;5072229;28;20078;-74
2023/05/09 12:34:31;;;;;;;6.43;4.57;;;;;;;14.50;100.00;100896.38;5071787;28;20021;-74
2023/05/09 12:36:58;;;;;;;4.13;3.72;;;;;;;14.58;100.00;100892.41;5069727;28;20027;-75
2023/05/09 12:39:26;;;;;;;6.05;4.20;;;;;;;14.58;100.00;100886.94;5051894;28;20021;-75
2023/05/09 12:41:52;;;;;;;4.60;3.97;;;;;;;14.64;100.00;100883.25;5065957;28;20025;-78
2023/05/09 12:44:25;;;;;;;7.05;3.72;;;;;;;14.58;100.00;100886.13;5072237;28;20026;-75
2023/05/09 12:47:00;;;;;;;4.22;3.83;;;;;;;14.63;100.00;100884.34;5054232;28;20032;-74
2023/05/09 12:49:26;;;;;;;5.88;3.80;;;;;;;14.64;100.00;100879.72;5071584;28;20031;-74
2023/05/09 12:51:52;;;;;;;6.53;4.40;;;;;;;14.69;100.00;100875.16;5074230;28;20025;-74
2023/05/09 12:54:25;;;;;;;5.55;3.58;;;;;;;14.65;100.00;100876.75;5071331;28;20037;-75
2023/05/09 12:56:52;;;;;;;3.85;3.47;;;;;;;14.59;100.00;100875.00;5036693;28;20036;-75
2023/05/09 12:59:27;;;;;;;4.15;3.60;;;;;;;14.62;100.00;100871.81;5036601;28;20444;-75
2023/05/09 13:01:53;;;;;;;4.55;3.60;;;;;;;14.67;100.00;100873.75;5051728;28;20029;-76
2023/05/09 13:04:23;;;;;;;3.92;3.22;;;;;;;14.61;100.00;100878.31;5055270;28;20066;-78
2023/05/09 13:06:54;;;;;;;4.57;3.50;;;;;;;14.53;100.00;100865.13;5050034;28;20028;-76
2023/05/09 13:09:21;;;;;;;4.13;3.63;;;;;;;14.48;100.00;100875.94;5054390;28;20024;-80
2023/05/09 13:11:47;;;;;;;4.70;3.55;;;;;;;14.44;100.00;100863.91;5062749;28;20021;-77
2023/05/09 13:14:13;;;;;;;6.13;4.50;;;;;;;14.40;100.00;100862.75;5045329;28;20060;-77
2023/05/09 13:16:39;;;;;;;7.35;4.53;;;;;;;14.44;100.00;100858.44;5043388;28;20334;-79
2023/05/09 13:19:04;;;;;;;8.75;6.03;;;;;;;14.43;100.00;100857.63;5049999;28;20033;-78
2023/05/09 13:21:30;;;;;;;4.20;3.50;;;;;;;14.46;100.00;100859.84;5054870;28;20427;-78
2023/05/09 13:23:56;;;;;;;5.35;3.67;;;;;;;14.46;100.00;100851.69;5053198;28;20036;-78
2023/05/09 13:26:21;;;;;;;5.68;3.75;;;;;;;14.42;100.00;100850.53;5054559;28;20044;-74
2023/05/09 13:28:47;;;;;;;6.38;3.88;;;;;;;14.45;100.00;100849.22;5055035;28;20451;-73
2023/05/09 13:31:12;;;;;;;4.32;3.92;;;;;;;14.47;100.00;100850.59;5054828;28;20033;-75
2023/05/09 13:33:38;;;;;;;5.68;4.20;;;;;;;14.42;100.00;100845.09;5062190;28;20029;-75
2023/05/09 13:36:03;;;;;;;6.30;4.07;;;;;;;14.47;100.00;100845.16;5053020;28;20368;-76
2023/05/09 13:38:31;;;;;;;4.68;3.40;;;;;;;14.44;100.00;100839.41;5053866;28;20040;-76
2023/05/09 13:40:56;;;;;;;4.68;4.18;;;;;;;14.49;100.00;100840.28;5036803;28;20067;-76
2023/05/09 13:43:22;;;;;;;4.60;4.20;;;;;;;14.46;100.00;100835.34;5053861;28;20057;-74
2023/05/09 13:45:47;;;;;;;6.18;4.20;;;;;;;14.49;100.00;100840.28;5054575;28;20029;-77
2023/05/09 13:48:12;;;;;;;5.43;3.95;;;;;;;14.49;100.00;100834.00;5037007;28;20087;-77
2023/05/09 13:50:38;;;;;;;4.70;4.18;;;;;;;14.52;100.00;100830.78;5036729;28;20043;-77
2023/05/09 13:53:03;;;;;;;4.57;3.67;;;;;;;14.45;100.00;100827.44;5036837;28;20062;-76
2023/05/09 13:55:33;;;;;;;6.65;3.80;;;;;;;14.43;100.00;100826.84;5052959;28;20032;-77
2023/05/09 13:57:58;;;;;;;4.63;3.95;;;;;;;14.46;100.00;100820.91;5047298;28;20041;-76
2023/05/09 14:00:25;;;;;;;10.15;3.63;;;;;;;14.49;100.00;100823.13;5033336;28;20025;-77
2023/05/09 14:02:51;;;;;;;4.68;3.67;;;;;;;14.41;100.00;100820.84;5050863;28;20016;-77
2023/05/09 14:05:17;;;;;;;4.22;3.75;;;;;;;14.41;100.00;100810.75;5074010;28;20476;-76
2023/05/09 14:07:42;;;;;;;4.93;4.40;;;;;;;14.42;100.00;100812.41;5056291;28;20027;-75
2023/05/09 14:10:08;;;;;;;4.05;3.35;;;;;;;14.45;100.00;100811.09;5066686;28;20433;-76
2023/05/09 14:12:33;;;;;;;4.00;3.58;;;;;;;14.42;100.00;100811.56;5032951;28;20448;-76
2023/05/09 14:14:58;;;;;;;5.57;4.40;;;;;;;14.45;100.00;100809.19;5033094;28;20468;-76
2023/05/09 14:17:24;;;;;;;4.22;3.50;;;;;;;14.43;100.00;100808.63;5034068;28;20017;-75
2023/05/09 14:19:49;;;;;;;4.75;3.65;;;;;;;14.40;100.00;100797.41;5034111;28;20064;-76
2023/05/09 14:22:15;;;;;;;4.93;4.38;;;;;;;14.41;100.00;100804.50;5034309;28;20029;-77
2023/05/09 14:24:40;;;;;;;4.57;4.07;;;;;;;14.44;100.00;100804.00;5049939;28;20024;-75
2023/05/09 14:27:06;;;;;;;6.00;5.40;;;;;;;14.47;100.00;100798.84;5074126;28;20067;-75
2023/05/09 14:29:31;;;;;;;7.10;4.70;;;;;;;14.46;100.00;100796.41;5040887;28;20466;-77
2023/05/09 14:31:57;;;;;;;6.15;4.80;;;;;;;14.52;100.00;100790.78;5053737;28;20033;-77
2023/05/09 14:34:22;;;;;;;4.70;4.15;;;;;;;14.56;100.00;100782.91;5036046;28;20027;-75
2023/05/09 14:36:49;;;;;;;4.32;3.95;;;;;;;14.51;100.00;100777.41;5053657;28;20029;-77
2023/05/09 14:39:14;;;;;;;3.70;3.40;;;;;;;14.47;100.00;100782.53;5057867;28;20024;-76
2023/05/09 14:41:40;;;;;;;4.20;3.80;;;;;;;14.46;100.00;100780.06;5055327;28;20031;-77
2023/05/09 14:44:05;;;;;;;4.93;4.47;;;;;;;14.47;100.00;100777.06;5055721;28;20035;-74
2023/05/09 14:46:30;;;;;;;4.75;3.80;;;;;;;14.47;100.00;100771.63;5057896;28;20452;-75
2023/05/09 14:49:02;;;;;;;3.90;3.60;;;;;;;14.52;100.00;100762.72;5034350;28;20091;-77
2023/05/09 14:51:28;;;;;;;5.55;4.20;;;;;;;14.48;100.00;100764.31;5052386;28;20119;-75
2023/05/09 14:53:53;;;;;;;4.65;3.40;;;;;;;14.52;100.00;100758.09;5053449;28;20108;-76
2023/05/09 14:56:18;;;;;;;6.53;4.15;;;;;;;14.56;100.00;100752.97;5053515;28;20028;-75
2023/05/09 14:58:44;;;;;;;6.78;3.85;;;;;;;14.58;100.00;100756.25;5053417;28;20480;-77
2023/05/09 15:01:09;;;;;;;7.20;4.15;;;;;;;14.59;100.00;100757.91;5070932;28;20052;-75
2023/05/09 15:03:34;;;;;;;5.22;3.90;;;;;;;14.57;100.00;100751.91;5050378;28;20472;-76
2023/05/09 15:06:00;;;;;;;6.18;4.00;;;;;;;14.58;100.00;100748.06;5051997;28;20049;-77
2023/05/09 15:08:25;;;;;;;4.28;3.97;;;;;;;14.62;100.00;100743.00;5052065;28;20353;-76
2023/05/09 15:10:51;;;;;;;5.05;4.05;;;;;;;14.63;100.00;100742.72;5053097;28;20070;-75
2023/05/09 15:13:16;;;;;;;4.72;3.75;;;;;;;14.62;100.00;100738.34;5052768;28;20028;-76
2023/05/09 15:15:42;;;;;;;5.40;4.10;;;;;;;14.55;100.00;100740.41;5050498;28;20119;-76
2023/05/09 15:18:12;;;;;;;3.78;3.47;;;;;;;14.59;100.00;100741.56;5035307;28;20033;-76
2023/05/09 15:20:38;;;;;;;6.18;4.40;;;;;;;14.61;100.00;100723.09;5053150;28;20028;-75
2023/05/09 15:23:05;;;;;;;5.82;3.83;;;;;;;14.64;100.00;100730.75;5053111;28;20025;-75
2023/05/09 15:25:30;;;;;;;5.75;4.10;;;;;;;14.61;100.00;100731.25;5034303;28;20057;-76
2023/05/09 15:27:56;;;;;;;4.30;3.90;;;;;;;14.66;100.00;100730.50;5034128;28;20052;-76
2023/05/09 15:30:21;;;;;;;4.90;4.00;;;;;;;14.60;100.00;100724.16;5050500;28;20037;-75
2023/05/09 15:32:46;;;;;;;4.13;3.70;;;;;;;14.66;100.00;100725.88;5034725;28;20029;-75
2023/05/09 15:35:12;;;;;;;4.10;3.67;;;;;;;14.66;100.00;100725.03;5034961;28;20033;-75
2023/05/09 15:37:39;;;;;;;3.80;3.50;;;;;;;14.60;100.00;100728.75;5052596;28;20017;-76
2023/05/09 15:40:06;;;;;;;4.47;3.47;;;;;;;14.55;100.00;100724.06;5052597;28;20057;-75
2023/05/09 15:42:31;;;;;;;3.60;3.25;;;;;;;14.57;100.00;100716.50;5051815;28;20029;-76
2023/05/09 15:44:56;;;;;;;4.18;3.78;;;;;;;14.54;100.00;100717.00;5050287;28;20035;-77
2023/05/09 15:47:22;;;;;;;4.72;3.80;;;;;;;14.56;100.00;100719.47;5052052;28;20115;-76
2023/05/09 15:49:47;;;;;;;4.72;4.30;;;;;;;14.57;100.00;100715.66;5061832;28;20536;-76
2023/05/09 15:52:12;;;;;;;5.97;4.10;;;;;;;14.56;100.00;100712.13;5054780;28;20078;-79
2023/05/09 15:54:38;;;;;;;4.78;3.92;;;;;;;14.56;100.00;100717.56;5072905;28;20021;-76
2023/05/09 15:57:05;;;;;;;4.15;3.75;;;;;;;14.54;100.00;100709.66;5056428;28;20029;-76
2023/05/09 15:59:31;;;;;;;5.32;3.97;;;;;;;14.55;100.00;100707.75;5027066;28;20041;-76
2023/05/09 16:01:56;;;;;;;5.93;4.00;;;;;;;14.54;100.00;100708.84;5034376;28;20044;-77
